Latest Weather Observations for Inverell RS

IDN60801

Issued at 1:05 pm EST Friday 18 April 2014 (issued every 30 minutes, with the page automatically refreshed every 10 minutes)

About weather observations | Map of weather stations | Latest weather observations for NSW | Other Formats
Station Details ID: 056018 Name: INVERELL RESEARCH CENTRE Lat: -29.78 Lon: 151.08 Height: 664.0 m
Data from the previous 72 hours. | See also: Recent months at Inverell RS
Date/Time
EST
Temp
°C
App
Temp
°C
Dew
Point
Rel
Hum
%
Delta-T
°C
Wind Press
QNH
hPa
Press
MSL
hPa
Rain
since 9 am
mm
Dir
 
Spd
km/h
Gust
km/h
Spd
kts
Gust
kts
18/01:00pm 21.6 17.5 2.5 28 9.3 S 13 20 7 11 1016.8 - 0.0
18/12:30pm 21.0 16.7 3.0 30 8.8 S 15 28 8 15 1017.1 - 0.0
18/12:00pm 20.6 17.7 4.7 35 8.0 SW 9 17 5 9 1017.6 1016.0 0.0
18/11:30am 20.0 16.1 3.5 33 8.1 SSW 13 20 7 11 1018.2 - 0.0
18/11:00am 19.6 15.9 4.3 36 7.6 SSW 13 20 7 11 1018.6 - 0.0
18/10:30am 18.8 15.4 4.2 38 7.2 S 11 22 6 12 1018.8 - 0.0
18/10:00am 18.5 14.8 4.5 39 6.9 SSW 13 17 7 9 1019.2 - 0.0
18/09:30am 18.4 15.8 6.3 45 6.2 WSW 9 13 5 7 1019.4 - 0.0
18/09:00am 16.8 14.8 7.1 52 5.0 W 7 15 4 8 1019.6 1017.9 0.0
18/08:30am 15.6 13.2 7.2 57 4.3 SE 9 11 5 6 1019.6 - 0.0
18/08:00am 13.7 12.0 8.5 71 2.7 SE 7 9 4 5 1019.4 - 0.0
18/07:30am 10.5 8.7 7.9 84 1.3 SE 7 9 4 5 1019.3 - 0.0
18/07:00am 8.4 7.6 6.3 87 1.0 CALM 0 0 0 0 1019.4 - 0.0
18/06:30am 6.6 5.5 5.3 91 0.6 CALM 0 0 0 0 1019.1 - 0.0
18/06:00am 6.6 5.5 5.1 90 0.7 S 0 0 0 0 1018.7 1017.1 0.0
18/05:30am 6.5 5.4 5.0 90 0.7 CALM 0 0 0 0 1018.5 - 0.0
18/05:00am 7.0 5.9 5.0 87 0.9 CALM 0 0 0 0 1018.4 - 0.0
18/04:30am 7.0 5.8 4.8 86 1.0 CALM 0 0 0 0 1018.5 - 0.0
18/04:00am 7.6 5.1 4.8 82 1.3 SSE 7 9 4 5 1018.5 - 0.0
18/03:30am 7.5 5.0 4.9 83 1.2 SSE 7 9 4 5 1018.4 - 0.0
18/03:00am 10.1 7.7 5.2 71 2.3 S 7 11 4 6 1018.4 1016.8 0.0
18/02:30am 9.9 7.1 5.0 71 2.3 S 9 11 5 6 1018.6 - 0.0
18/02:00am 9.7 7.2 5.0 72 2.2 SSW 7 11 4 6 1018.7 - 0.0
18/01:30am 10.1 8.9 4.7 69 2.5 CALM 0 0 0 0 1019.1 - 0.0
18/01:00am 10.9 9.3 4.7 65 2.9 S 2 6 1 3 1019.4 - 0.0
18/12:30am 11.8 9.2 4.3 60 3.5 SSE 7 9 4 5 1019.3 - 0.0
18/12:00am 12.6 10.0 4.3 57 3.9 S 7 9 4 5 1019.6 1017.9 0.0
 
Date/Time
EST
Temp
°C
App
Temp
°C
Dew
Point
Rel
Hum
%
Delta-T
°C
Wind Press
QNH
hPa
Press
MSL
hPa
Rain
since 9 am
mm
Dir
 
Spd
km/h
Gust
km/h
Spd
kts
Gust
kts
17/11:30pm 12.2 9.7 4.6 59 3.6 S 7 7 4 4 1019.6 - 0.0
17/11:00pm 11.9 9.4 5.0 62 3.3 SSE 7 7 4 4 1019.8 - 0.0
17/10:30pm 11.7 9.5 5.4 65 3.0 SW 6 9 3 5 1019.9 - 0.0
17/10:00pm 13.9 11.1 5.0 55 4.3 SW 9 11 5 6 1019.8 - 0.0
17/09:30pm 14.0 11.1 4.9 54 4.4 WSW 9 11 5 6 1020.0 - 0.0
17/09:00pm 14.4 11.2 4.9 53 4.6 SW 11 13 6 7 1019.7 1018.1 0.0
17/08:30pm 14.2 11.4 5.1 54 4.4 WSW 9 13 5 7 1019.7 - 0.0
17/08:00pm 15.7 12.7 4.3 46 5.5 SW 9 15 5 8 1019.5 - 0.0
17/07:30pm 16.0 13.1 4.7 47 5.5 SW 9 13 5 7 1019.4 - 0.0
17/07:00pm 16.6 13.7 4.5 44 5.9 SSW 9 13 5 7 1019.1 - 0.0
17/06:30pm 17.2 14.2 4.3 42 6.3 SW 9 13 5 7 1018.6 - 0.0
17/06:00pm 17.3 15.0 5.5 45 5.9 SSW 7 13 4 7 1018.3 1016.7 0.0
17/05:30pm 18.7 17.4 5.9 43 6.5 SW 2 7 1 4 1018.2 - 0.0
17/05:00pm 19.9 17.9 6.1 40 7.1 SSW 6 11 3 6 1018.0 - 0.0
17/04:30pm 20.6 17.7 4.4 34 8.1 S 9 15 5 8 1017.7 - 0.0
17/04:00pm 21.0 18.0 4.2 33 8.4 S 9 15 5 8 1017.7 - 0.0
17/03:30pm 20.5 17.5 4.3 34 8.1 SSW 9 19 5 10 1017.6 - 0.0
17/03:00pm 21.4 18.1 4.3 32 8.6 S 11 22 6 12 1017.5 1015.8 0.0
17/02:30pm 20.5 17.8 5.4 37 7.7 SSW 9 15 5 8 1017.8 - 0.0
17/02:00pm 21.7 18.3 3.9 31 8.9 SW 11 17 6 9 1017.8 - 0.0
17/01:30pm 20.5 16.9 4.8 35 7.9 S 13 20 7 11 1018.0 - 0.0
17/01:00pm 20.6 17.5 5.5 37 7.7 S 11 15 6 8 1018.3 - 0.0
17/12:30pm 20.5 17.0 5.4 37 7.7 S 13 19 7 10 1018.8 - 0.0
17/12:00pm 21.1 18.0 5.5 36 8.0 SW 11 20 6 11 1019.3 1017.7 0.0
17/11:30am 20.7 16.7 5.1 36 7.9 S 15 24 8 13 1019.7 - 0.0
17/11:00am 20.7 17.7 6.0 38 7.6 SSW 11 17 6 9 1020.1 - 0.0
17/10:30am 20.6 18.3 7.4 42 7.0 W 9 13 5 7 1020.3 - 0.0
17/10:00am 19.4 17.2 6.1 42 6.8 ESE 7 11 4 6 1020.3 - 0.0
17/09:30am 18.2 16.1 8.2 52 5.3 ESE 9 11 5 6 1020.4 - 0.0
17/09:00am 16.9 14.8 8.1 56 4.6 SE 9 11 5 6 1020.7 1019.1 0.0
17/08:30am 15.9 14.6 9.8 67 3.3 ESE 7 11 4 6 1020.7 - 0.0
17/08:00am 14.0 12.2 9.5 74 2.4 SSE 9 11 5 6 1020.6 - 0.0
17/07:30am 13.6 12.2 9.4 76 2.2 SSE 7 11 4 6 1020.3 - 0.0
17/07:00am 12.0 10.0 8.5 79 1.8 SSW 9 13 5 7 1020.2 - 0.0
17/06:30am 10.6 8.0 7.6 82 1.5 SSW 11 13 6 7 1019.6 - 0.0
17/06:00am 10.7 8.4 7.5 80 1.6 S 9 13 5 7 1019.3 1017.7 0.0
17/05:30am 11.0 8.1 8.2 83 1.4 SW 13 15 7 8 1019.0 - 0.0
17/05:00am 11.1 8.9 7.7 79 1.7 SSW 9 15 5 8 1018.6 - 0.0
17/04:30am 10.9 8.7 7.9 82 1.5 S 9 11 5 6 1018.5 - 0.0
17/04:00am 11.3 8.5 8.4 82 1.5 SW 13 17 7 9 1018.3 - 0.0
17/03:30am 11.3 9.1 7.9 79 1.7 SSW 9 13 5 7 1018.4 - 0.0
17/03:00am 11.1 9.0 8.1 82 1.5 SSW 9 11 5 6 1018.2 1016.6 0.0
17/02:30am 11.6 9.1 8.0 78 1.8 SW 11 13 6 7 1018.1 - 0.0
17/02:00am 12.1 9.9 8.0 76 2.1 S 9 11 5 6 1018.3 - 0.0
17/01:30am 12.3 10.1 8.0 75 2.2 S 9 11 5 6 1018.4 - 0.0
17/01:00am 12.4 10.3 8.1 75 2.2 S 9 11 5 6 1018.6 - 0.0
17/12:30am 12.6 10.5 8.1 74 2.3 S 9 11 5 6 1018.6 - 0.0
17/12:00am 12.5 10.4 8.4 76 2.1 S 9 11 5 6 1018.7 1017.1 0.0
 
Date/Time
EST
Temp
°C
App
Temp
°C
Dew
Point
Rel
Hum
%
Delta-T
°C
Wind Press
QNH
hPa
Press
MSL
hPa
Rain
since 9 am
mm
Dir
 
Spd
km/h
Gust
km/h
Spd
kts
Gust
kts
16/11:30pm 13.7 11.3 8.5 71 2.7 SSE 11 15 6 8 1018.6 - 0.0
16/11:00pm 13.6 11.7 9.0 74 2.4 S 9 15 5 8 1018.7 - 0.0
16/10:30pm 14.1 12.3 9.4 73 2.5 S 9 15 5 8 1019.0 - 0.0
16/10:00pm 14.8 13.0 9.3 69 2.9 SW 9 11 5 6 1019.0 - 0.0
16/09:30pm 15.1 13.3 9.3 68 3.1 SW 9 11 5 6 1018.7 - 0.0
16/09:00pm 15.9 14.2 9.8 67 3.3 SW 9 13 5 7 1018.7 1017.1 0.0
16/08:30pm 15.4 13.5 9.2 66 3.3 WSW 9 13 5 7 1018.5 - 0.0
16/08:00pm 15.6 13.6 8.8 64 3.6 WSW 9 11 5 6 1018.3 - 0.0
16/07:30pm 16.8 14.8 8.7 59 4.3 WSW 9 13 5 7 1018.1 - 0.0
16/07:00pm 17.1 15.1 8.6 57 4.5 SSW 9 17 5 9 1017.9 - 0.0
16/06:30pm 17.2 15.6 8.8 57 4.5 SW 7 11 4 6 1017.7 - 0.0
16/06:00pm 17.9 16.2 8.3 53 5.1 SSW 7 11 4 6 1017.2 1015.6 0.0
16/05:30pm 19.3 17.3 7.0 44 6.4 SSW 7 13 4 7 1016.8 - 0.0
16/05:00pm 20.4 17.6 7.1 42 7.0 S 11 17 6 9 1016.6 - 0.0
16/04:30pm 21.5 19.3 6.1 36 8.0 S 7 13 4 7 1016.4 - 0.0
16/04:00pm 21.6 19.0 6.3 37 8.0 S 9 17 5 9 1016.2 - 0.0
16/03:30pm 20.7 18.4 7.5 42 7.0 SSW 9 15 5 8 1016.3 - 0.0
16/03:00pm 22.1 19.1 7.8 39 7.7 SSW 13 22 7 12 1016.3 1014.7 0.0
16/02:30pm 21.2 18.7 8.0 42 7.1 SSW 11 17 6 9 1016.4 - 0.0
16/02:00pm 21.6 18.6 7.6 40 7.5 SSW 13 22 7 12 1016.4 - 0.0
16/01:30pm 21.8 18.1 6.3 36 8.1 SSE 15 26 8 14 1016.6 - 0.0
16/01:00pm 22.2 19.6 7.9 39 7.7 S 11 24 6 13 1016.9 - 0.0
16/12:30pm 21.7 18.7 7.5 40 7.6 S 13 24 7 13 1017.2 - 0.0
16/12:00pm 21.4 17.9 7.0 39 7.6 SSW 15 20 8 11 1017.6 1016.0 0.0
16/11:30am 21.1 18.4 8.8 45 6.7 SSW 13 26 7 14 1018.1 - 0.0
16/11:00am 20.8 17.7 7.2 41 7.2 S 13 22 7 12 1018.6 - 0.0
16/10:30am 20.0 17.6 9.9 52 5.6 S 13 19 7 10 1018.8 - 0.0
16/10:00am 19.0 17.3 9.7 54 5.1 SW 9 19 5 10 1019.2 - 0.0
16/09:30am 18.4 16.4 10.2 59 4.5 SSW 11 17 6 9 1019.3 - 0.0
16/09:00am 17.5 16.1 9.6 60 4.3 SSE 7 13 4 7 1019.2 1017.6 0.0
16/08:30am 15.9 14.1 9.4 65 3.5 SSE 9 13 5 7 1019.0 - 0.0
16/08:00am 14.5 12.1 8.8 68 3.0 SSW 11 15 6 8 1018.8 - 0.0
16/07:30am 13.5 11.1 8.7 73 2.5 S 11 15 6 8 1018.6 - 0.0
16/07:00am 11.3 9.5 9.4 88 1.0 S 9 11 5 6 1018.4 - 0.0
16/06:30am 8.5 7.5 7.3 92 0.6 SSW 2 7 1 4 1018.1 - 0.0
16/06:00am 9.4 7.7 7.4 87 1.0 SSW 6 9 3 5 1017.9 1016.3 0.0
16/05:30am 10.7 8.8 7.7 82 1.5 S 7 9 4 5 1017.9 - 0.0
16/05:00am 10.9 8.7 7.7 80 1.6 S 9 13 5 7 1017.8 - 0.0
16/04:30am 11.0 8.7 7.4 78 1.8 S 9 13 5 7 1017.8 - 0.0
16/04:00am 11.2 8.9 7.4 77 1.9 S 9 11 5 6 1017.8 - 0.0
16/03:30am 12.0 9.3 7.2 72 2.4 S 11 17 6 9 1017.7 - 0.0
16/03:00am 11.0 9.1 6.9 76 2.0 SSW 6 7 3 4 1017.7 1016.1 0.0
16/02:30am 11.9 8.7 6.9 71 2.5 SW 13 15 7 8 1017.8 - 0.0
16/02:00am 13.0 10.1 6.3 64 3.3 SW 11 17 6 9 1017.7 - 0.0
16/01:30am 12.5 10.0 6.6 67 2.9 SSW 9 11 5 6 1017.7 - 0.0
16/01:00am 12.3 9.7 6.2 66 3.0 SSW 9 13 5 7 1017.9 - 0.0
16/12:30am 10.8 9.2 6.5 75 2.1 S 4 9 2 5 1017.9 - 0.0
16/12:00am 12.4 11.5 6.1 65 3.1 CALM 0 0 0 0 1017.8 1016.2 0.0
 
Date/Time
EST
Temp
°C
App
Temp
°C
Dew
Point
Rel
Hum
%
Delta-T
°C
Wind Press
QNH
hPa
Press
MSL
hPa
Rain
since 9 am
mm
Dir
 
Spd
km/h
Gust
km/h
Spd
kts
Gust
kts
15/11:30pm 13.2 11.2 6.3 63 3.4 SSW 6 7 3 4 1018.1 - 0.0
15/11:00pm 13.9 11.8 6.7 62 3.6 SSE 7 9 4 5 1018.3 - 0.0
15/10:30pm 14.5 12.0 6.7 59 3.9 SE 9 13 5 7 1018.4 - 0.0
15/10:00pm 14.0 11.6 6.8 62 3.6 SE 9 13 5 7 1018.5 - 0.0
15/09:30pm 14.1 11.6 6.7 61 3.7 SE 9 11 5 6 1018.3 - 0.0
15/09:00pm 14.9 12.3 6.3 56 4.3 SSE 9 13 5 7 1018.4 1016.7 0.0
15/08:30pm 15.4 12.7 5.7 52 4.8 SSE 9 11 5 6 1018.2 - 0.0
15/08:00pm 15.9 13.3 6.1 52 4.9 SSE 9 15 5 8 1017.9 - 0.0
15/07:30pm 16.8 14.1 5.8 48 5.5 S 9 13 5 7 1017.7 - 0.0
15/07:00pm 17.8 14.6 5.2 43 6.3 S 11 15 6 8 1017.5 - 0.0
15/06:30pm 17.8 14.6 4.9 42 6.4 SW 11 15 6 8 1017.5 - 0.0
15/06:00pm 17.9 15.1 5.0 42 6.4 SSW 9 13 5 7 1017.2 1015.6 0.0
15/05:30pm 18.7 15.7 4.3 38 7.1 S 9 13 5 7 1016.8 - 0.0
15/05:00pm 19.9 16.5 3.9 34 7.9 S 11 17 6 9 1016.5 - 0.0
15/04:30pm 20.8 17.4 4.2 33 8.3 SSE 11 19 6 10 1016.3 - 0.0
15/04:00pm 20.9 16.4 4.3 33 8.3 SSE 17 26 9 14 1016.4 - 0.0
15/03:30pm 21.3 17.3 5.0 34 8.3 S 15 28 8 15 1016.5 - 0.0
15/03:00pm 21.7 18.2 5.6 35 8.3 S 13 22 7 12 1016.5 1014.9 0.0
15/02:30pm 22.2 18.7 5.3 33 8.7 S 13 20 7 11 1016.5 - 0.0
15/02:00pm 21.2 16.8 4.8 34 8.3 SSE 17 24 9 13 1016.7 - 0.0
15/01:30pm 22.0 18.0 4.7 32 8.8 S 15 24 8 13 1016.7 - 0.0

Other Formats:

Comma delimited format used in spreadsheet applications
http://www.bom.gov.au/fwo/IDN60801/IDN60801.94541.axf

JavaScript Object Notation format (JSON) in row-major order
http://www.bom.gov.au/fwo/IDN60801/IDN60801.94541.json